SBSP/CGH METAR and TAF weather

Enter ICAO airport designator
Station Type Date Time Source
SBSP METAR 2022/01/26 09:00 UTC NOAA

SBSP 260900Z 06006KT CAVOK 22/18 Q1015


Station Type Date Time Source
SBSP Decoded METAR 2022/01/26 09:00 UTC NOAA

Sao Paulo/Congonhas Aeroporto, Brazil (SBSP) 23-37S 046-39W 802M
Jan 26, 2022 - 04:00 AM EST / 2022.01.26 0900 UTC
Wind: from the ENE (060 degrees) at 7 MPH (6 KT):0
Visibility: greater than 7 mile(s):0
Temperature: 71 F (22 C)
Dew Point: 64 F (18 C)
Relative Humidity: 78%
Pressure (altimeter): 29.97 in. Hg (1015 hPa)
ob: SBSP 260900Z 06006KT CAVOK 22/18 Q1015
cycle: 9

Station Type Date Time Source
SBSP TAF 2022/01/26 12:42 UTC NOAA

TAF SBSP 260830Z 2612/2624 33010KT 9999 FEW030 TX30/2617Z TN22/2623Z
BECMG 2614/2616 SCT040 FEW045TCU PROB40
TEMPO 2618/2621 TSRA BKN030 FEW040CB PROB30 2621/2623 15005KT 7000 SCT008
RMK PGF

Example: see airport list